Time;durP1;ratioP1;P1;durP2;ratioP2;P2;SDS_P1;SDS_P2;PMS_P1;PMS_P2;Temp;Humidity;BMP_temperature;BMP_pressure;BME280_temperature;BME280_humidity;BME280_pressure;Samples;Min_cycle;Max_cycle;Signal;HPM_P1;HPM_P2
2022/08/24 00:02:13;;;;;;;4.50;2.50;;;;;;;;;;6092414;23;20036;-86
2022/08/24 00:04:39;;;;;;;6.28;3.08;;;;;;;;;;6117816;23;20025;-85
2022/08/24 00:07:05;;;;;;;7.22;2.40;;;;;;;;;;6092599;23;20022;-85
2022/08/24 00:09:31;;;;;;;8.43;2.60;;;;;;;;;;6093424;23;20018;-85
2022/08/24 00:11:57;;;;;;;7.15;2.90;;;;;;;;;;6092050;23;20462;-85
2022/08/24 00:14:23;;;;;;;4.55;2.20;;;;;;;;;;6092824;23;20014;-85
2022/08/24 00:16:48;;;;;;;7.13;2.60;;;;;;;;;;6093347;23;20017;-86
2022/08/24 00:19:13;;;;;;;6.07;2.90;;;;;;;;;;6117266;23;20517;-86
2022/08/24 00:21:39;;;;;;;6.95;2.70;;;;;;;;;;6093032;23;20010;-85
2022/08/24 00:24:05;;;;;;;4.57;2.55;;;;;;;;;;6093086;23;20109;-85
2022/08/24 00:26:30;;;;;;;6.03;2.80;;;;;;;;;;6093048;23;20426;-85
2022/08/24 00:28:59;;;;;;;6.95;2.50;;;;;;;;;;6117509;23;20018;-85
2022/08/24 00:31:25;;;;;;;4.70;2.60;;;;;;;;;;6092470;23;20021;-85
2022/08/24 00:33:50;;;;;;;6.25;2.95;;;;;;;;;;6093892;23;20006;-85
2022/08/24 00:36:16;;;;;;;6.55;3.08;;;;;;;;;;6091839;23;20160;-85
2022/08/24 00:38:42;;;;;;;7.05;2.70;;;;;;;;;;6093170;23;20084;-85
2022/08/24 00:41:07;;;;;;;6.38;3.13;;;;;;;;;;6116673;23;20022;-85
2022/08/24 00:43:32;;;;;;;6.00;3.00;;;;;;;;;;6117476;23;20378;-85
2022/08/24 00:46:17;;;;;;;7.78;3.00;;;;;;;;;;6116433;23;20094;-85
2022/08/24 00:48:46;;;;;;;7.00;3.03;;;;;;;;;;6117086;23;20025;-85
2022/08/24 00:51:36;;;;;;;7.05;2.88;;;;;;;;;;6091947;23;20864;-85
2022/08/24 00:54:07;;;;;;;7.57;2.83;;;;;;;;;;6092656;23;20025;-85
2022/08/24 00:56:40;;;;;;;7.30;2.90;;;;;;;;;;6092271;23;20013;-85
2022/08/24 00:59:10;;;;;;;5.03;3.25;;;;;;;;;;6092807;23;20021;-85
2022/08/24 01:01:36;;;;;;;5.93;3.47;;;;;;;;;;6092007;23;20034;-85
2022/08/24 01:04:04;;;;;;;7.93;3.58;;;;;;;;;;6117224;23;20017;-85
2022/08/24 01:06:32;;;;;;;8.57;2.90;;;;;;;;;;6092626;23;20069;-84
2022/08/24 01:08:57;;;;;;;4.40;3.03;;;;;;;;;;6117240;23;20117;-85
2022/08/24 01:11:26;;;;;;;6.10;3.25;;;;;;;;;;6092254;23;20037;-85
2022/08/24 01:13:52;;;;;;;6.93;3.65;;;;;;;;;;6092587;23;20014;-84
2022/08/24 01:19:03;;;;;;;7.43;3.40;;;;;;;;;;6116697;23;20139;-85
2022/08/24 01:22:11;;;;;;;7.35;3.45;;;;;;;;;;6091869;23;20397;-86
2022/08/24 01:24:36;;;;;;;7.07;3.35;;;;;;;;;;6097794;23;20489;-85
2022/08/24 01:27:02;;;;;;;6.45;3.55;;;;;;;;;;6091699;23;20018;-85
2022/08/24 01:29:30;;;;;;;7.40;3.50;;;;;;;;;;6092237;23;20038;-85
2022/08/24 01:31:56;;;;;;;;;;;;;;;;;;6092515;23;20049;-85
2022/08/24 01:34:21;;;;;;;7.72;3.47;;;;;;;;;;6093222;23;19941;-86
2022/08/24 01:36:53;;;;;;;6.30;3.13;;;;;;;;;;6091787;23;20013;-85
2022/08/24 01:39:23;;;;;;;8.32;3.75;;;;;;;;;;6092980;23;20017;-86
2022/08/24 01:42:09;;;;;;;11.32;3.83;;;;;;;;;;6091646;23;20089;-85
2022/08/24 01:44:37;;;;;;;7.53;3.25;;;;;;;;;;6027607;23;20090;-86
2022/08/24 01:47:03;;;;;;;;;;;;;;;;;;6004734;23;20024;-86
2022/08/24 01:49:32;;;;;;;5.70;3.25;;;;;;;;;;6004502;23;20273;-85
2022/08/24 01:51:58;;;;;;;6.88;3.60;;;;;;;;;;6004074;23;20483;-85
2022/08/24 01:54:24;;;;;;;8.10;3.45;;;;;;;;;;6004690;23;20015;-85
2022/08/24 01:56:49;;;;;;;7.68;3.40;;;;;;;;;;6028339;23;20023;-86
2022/08/24 01:59:15;;;;;;;6.40;3.50;;;;;;;;;;6004054;23;20456;-86
2022/08/24 02:01:44;;;;;;;7.45;3.35;;;;;;;;;;6004297;23;20027;-86
2022/08/24 02:04:09;;;;;;;6.95;3.30;;;;;;;;;;6028836;23;20088;-85
2022/08/24 02:06:35;;;;;;;5.90;3.33;;;;;;;;;;6003810;23;20344;-84
2022/08/24 02:09:01;;;;;;;6.63;3.30;;;;;;;;;;6004493;23;20034;-85
2022/08/24 02:11:27;;;;;;;8.95;3.53;;;;;;;;;;6004101;23;20019;-85
2022/08/24 02:13:52;;;;;;;8.38;3.85;;;;;;;;;;6004979;23;20015;-85
2022/08/24 02:16:18;;;;;;;7.30;3.13;;;;;;;;;;6004127;23;20118;-85
2022/08/24 02:18:44;;;;;;;5.75;3.33;;;;;;;;;;6004415;23;20023;-86
2022/08/24 02:21:10;;;;;;;7.13;3.60;;;;;;;;;;6027959;23;20454;-86
2022/08/24 02:23:36;;;;;;;7.47;3.70;;;;;;;;;;6091835;23;20021;-85
2022/08/24 02:26:06;;;;;;;7.45;3.80;;;;;;;;;;6067500;23;20022;-86
2022/08/24 02:28:34;;;;;;;7.05;3.67;;;;;;;;;;6067663;23;20014;-85
2022/08/24 02:31:01;;;;;;;5.30;3.40;;;;;;;;;;6067220;23;20104;-86
2022/08/24 02:33:26;;;;;;;7.25;3.63;;;;;;;;;;6094105;23;20014;-85
2022/08/24 02:35:53;;;;;;;6.55;3.55;;;;;;;;;;6069036;23;20084;-85
2022/08/24 02:38:19;;;;;;;7.72;3.92;;;;;;;;;;6094762;23;20490;-86
2022/08/24 02:40:45;;;;;;;8.02;3.85;;;;;;;;;;6093256;23;20088;-86
2022/08/24 02:43:10;;;;;;;7.22;3.50;;;;;;;;;;6093890;23;20045;-86
2022/08/24 02:45:40;;;;;;;8.27;4.93;;;;;;;;;;6069156;23;20037;-85
2022/08/24 02:48:05;;;;;;;9.85;5.47;;;;;;;;;;6069301;23;20354;-86
2022/08/24 02:50:31;;;;;;;12.77;6.32;;;;;;;;;;6092108;23;20025;-86
2022/08/24 02:52:56;;;;;;;14.75;8.02;;;;;;;;;;6093238;23;20790;-86
2022/08/24 02:55:22;;;;;;;15.68;8.68;;;;;;;;;;6093522;23;20096;-86
2022/08/24 02:57:49;;;;;;;18.52;9.38;;;;;;;;;;6118517;23;20712;-86
2022/08/24 03:00:18;;;;;;;20.55;9.70;;;;;;;;;;6093624;23;20014;-86
2022/08/24 03:02:46;;;;;;;21.05;9.95;;;;;;;;;;6093503;23;20486;-86
2022/08/24 03:05:13;;;;;;;24.23;11.35;;;;;;;;;;6117773;23;20021;-85
2022/08/24 03:07:38;;;;;;;24.30;11.52;;;;;;;;;;6093683;23;20018;-85
2022/08/24 03:10:05;;;;;;;18.88;9.63;;;;;;;;;;6118063;23;20073;-85
2022/08/24 03:12:30;;;;;;;22.73;10.33;;;;;;;;;;6116720;23;20025;-85
2022/08/24 03:14:56;;;;;;;21.35;10.90;;;;;;;;;;6093143;23;20021;-85
2022/08/24 03:17:22;;;;;;;23.85;11.77;;;;;;;;;;6093612;23;20081;-86
2022/08/24 03:19:48;;;;;;;22.92;11.80;;;;;;;;;;6118317;23;20041;-86
2022/08/24 03:22:16;;;;;;;21.63;10.63;;;;;;;;;;6092332;23;20053;-86
2022/08/24 03:24:41;;;;;;;20.33;10.70;;;;;;;;;;6094482;23;20022;-86
2022/08/24 03:27:06;;;;;;;20.23;10.45;;;;;;;;;;6092346;23;20021;-86
2022/08/24 03:29:33;;;;;;;20.17;10.40;;;;;;;;;;6093552;23;20045;-85
2022/08/24 03:31:59;;;;;;;19.30;10.40;;;;;;;;;;6092723;23;20401;-86
2022/08/24 03:34:24;;;;;;;20.20;10.90;;;;;;;;;;6118082;23;20089;-86
2022/08/24 03:36:50;;;;;;;21.35;10.68;;;;;;;;;;6093485;23;20020;-86
2022/08/24 03:39:15;;;;;;;21.38;10.55;;;;;;;;;;6093655;23;20029;-85
2022/08/24 03:41:41;;;;;;;21.65;10.90;;;;;;;;;;6116857;23;20069;-86
2022/08/24 03:44:06;;;;;;;21.58;10.85;;;;;;;;;;6117471;23;20450;-87
2022/08/24 03:46:35;;;;;;;20.65;10.68;;;;;;;;;;6116846;23;20017;-86
2022/08/24 03:49:03;;;;;;;19.60;10.80;;;;;;;;;;6092343;23;20049;-87
2022/08/24 03:51:28;;;;;;;21.48;10.80;;;;;;;;;;6117245;23;20447;-86
2022/08/24 03:53:54;;;;;;;21.00;10.65;;;;;;;;;;6092832;23;20018;-86
2022/08/24 03:56:20;;;;;;;22.92;11.07;;;;;;;;;;6092990;23;20386;-86
2022/08/24 03:58:46;;;;;;;21.73;10.75;;;;;;;;;;6092869;23;20018;-86
2022/08/24 04:01:12;;;;;;;21.13;10.98;;;;;;;;;;6092181;23;20025;-86
2022/08/24 04:03:42;;;;;;;18.10;10.45;;;;;;;;;;6093350;23;20297;-86
2022/08/24 04:06:08;;;;;;;17.90;10.55;;;;;;;;;;6092749;23;20014;-86
2022/08/24 04:08:34;;;;;;;21.65;11.18;;;;;;;;;;6092358;23;20490;-86
2022/08/24 04:11:00;;;;;;;21.10;10.82;;;;;;;;;;6091683;23;20032;-79
2022/08/24 04:13:31;;;;;;;23.38;11.48;;;;;;;;;;6092428;23;20097;-78
2022/08/24 04:16:02;;;;;;;20.35;10.60;;;;;;;;;;6115953;23;20522;-79
2022/08/24 04:18:28;;;;;;;19.95;10.65;;;;;;;;;;6116923;23;20064;-77
2022/08/24 04:20:53;;;;;;;23.92;11.02;;;;;;;;;;6091554;23;20022;-78
2022/08/24 04:23:18;;;;;;;19.90;10.45;;;;;;;;;;6117543;23;20013;-76
2022/08/24 04:25:45;;;;;;;22.70;11.85;;;;;;;;;;6091817;23;20442;-78
2022/08/24 04:28:13;;;;;;;20.42;11.48;;;;;;;;;;6091510;23;20021;-78
2022/08/24 04:30:41;;;;;;;21.75;10.63;;;;;;;;;;6091182;23;20603;-76
2022/08/24 04:33:07;;;;;;;18.83;10.48;;;;;;;;;;6115845;23;20454;-78
2022/08/24 04:35:36;;;;;;;20.33;10.43;;;;;;;;;;6091336;23;20697;-76
2022/08/24 04:38:02;;;;;;;20.10;10.90;;;;;;;;;;6091068;23;20021;-79
2022/08/24 04:40:27;;;;;;;19.00;10.80;;;;;;;;;;6091442;23;20024;-77
2022/08/24 04:42:53;;;;;;;18.75;10.68;;;;;;;;;;6116010;23;20339;-76
2022/08/24 04:45:18;;;;;;;22.83;10.82;;;;;;;;;;6091600;23;20446;-76
2022/08/24 04:47:46;;;;;;;21.23;11.15;;;;;;;;;;6115536;23;20446;-77
2022/08/24 04:50:11;;;;;;;21.38;11.18;;;;;;;;;;6090749;23;20054;-76
2022/08/24 04:52:37;;;;;;;21.63;11.27;;;;;;;;;;6091689;23;20069;-77
2022/08/24 04:55:02;;;;;;;20.95;12.13;;;;;;;;;;6115268;23;20074;-76
2022/08/24 04:57:28;;;;;;;21.58;11.98;;;;;;;;;;6115486;23;20013;-75
2022/08/24 04:59:56;;;;;;;19.48;10.88;;;;;;;;;;6116693;23;20020;-76
2022/08/24 05:02:23;;;;;;;25.30;10.95;;;;;;;;;;6114839;23;20018;-76
2022/08/24 05:04:48;;;;;;;23.38;11.13;;;;;;;;;;6092151;23;20446;-75
2022/08/24 05:07:14;;;;;;;25.30;12.20;;;;;;;;;;6114787;23;20045;-76
2022/08/24 05:09:39;;;;;;;23.75;11.30;;;;;;;;;;6116113;23;20018;-76
2022/08/24 05:12:05;;;;;;;22.13;11.57;;;;;;;;;;6114867;23;20021;-77
2022/08/24 05:14:30;;;;;;;23.85;11.93;;;;;;;;;;6116330;23;20014;-76
2022/08/24 05:16:58;;;;;;;25.77;11.45;;;;;;;;;;6116989;23;20022;-75
2022/08/24 05:19:27;;;;;;;23.95;11.18;;;;;;;;;;6116322;23;20037;-76
2022/08/24 05:21:52;;;;;;;26.35;11.80;;;;;;;;;;6114210;23;20450;-77
2022/08/24 05:24:18;;;;;;;26.70;11.60;;;;;;;;;;6091954;23;20018;-76
2022/08/24 05:26:44;;;;;;;21.27;11.20;;;;;;;;;;6090517;23;20073;-75
2022/08/24 05:29:10;;;;;;;19.17;10.80;;;;;;;;;;6115185;23;20017;-77
2022/08/24 05:31:35;;;;;;;21.00;10.20;;;;;;;;;;6115022;23;20077;-76
2022/08/24 05:34:01;;;;;;;18.42;10.93;;;;;;;;;;6090742;23;20085;-76
2022/08/24 05:36:29;;;;;;;19.70;9.77;;;;;;;;;;6090448;23;20014;-75
2022/08/24 05:38:56;;;;;;;;;;;;;;;;;;6091596;23;20092;-76
2022/08/24 05:41:21;;;;;;;17.08;9.68;;;;;;;;;;6115795;23;20605;-76
2022/08/24 05:43:47;;;;;;;18.20;10.73;;;;;;;;;;6115389;23;20083;-77
2022/08/24 05:46:13;;;;;;;14.43;9.30;;;;;;;;;;6090846;23;20079;-77
2022/08/24 05:48:39;;;;;;;15.05;9.90;;;;;;;;;;6115488;23;20030;-77
2022/08/24 05:51:06;;;;;;;16.67;9.52;;;;;;;;;;6115167;23;20044;-77
2022/08/24 05:53:35;;;;;;;18.77;10.63;;;;;;;;;;6091842;23;20394;-78
2022/08/24 05:56:07;;;;;;;;;;;;;;;;;;6117751;23;20037;-77
2022/08/24 05:58:33;;;;;;;19.20;10.07;;;;;;;;;;6090551;23;19913;-77
2022/08/24 06:01:03;;;;;;;17.65;9.98;;;;;;;;;;6114832;23;20510;-77
2022/08/24 06:03:29;;;;;;;22.48;15.70;;;;;;;;;;6115270;23;20081;-77
2022/08/24 06:05:54;;;;;;;16.83;9.65;;;;;;;;;;6115134;23;20129;-77
2022/08/24 06:08:20;;;;;;;13.55;8.30;;;;;;;;;;6116682;23;20411;-78
2022/08/24 06:10:48;;;;;;;13.75;9.13;;;;;;;;;;6116595;23;20018;-84
2022/08/24 06:13:15;;;;;;;18.08;9.93;;;;;;;;;;6093453;23;20652;-84
2022/08/24 06:15:41;;;;;;;15.48;9.18;;;;;;;;;;6091736;23;20513;-83
2022/08/24 06:18:07;;;;;;;16.88;9.20;;;;;;;;;;6117103;23;20018;-84
2022/08/24 06:20:37;;;;;;;15.85;9.70;;;;;;;;;;6092057;23;20051;-84
2022/08/24 06:23:03;;;;;;;17.05;10.07;;;;;;;;;;6117372;23;20482;-84
2022/08/24 06:28:20;;;;;;;17.60;10.48;;;;;;;;;;6117402;23;20020;-83
2022/08/24 06:30:46;;;;;;;19.05;10.32;;;;;;;;;;6107445;23;20550;-84
2022/08/24 06:33:11;;;;;;;19.55;10.75;;;;;;;;;;6092633;23;20024;-84
2022/08/24 06:35:37;;;;;;;19.33;10.90;;;;;;;;;;6064825;23;20410;-84
2022/08/24 06:38:03;;;;;;;20.52;11.00;;;;;;;;;;6093610;23;20088;-84
2022/08/24 06:40:28;;;;;;;21.95;11.13;;;;;;;;;;6078940;23;20534;-83
2022/08/24 06:42:54;;;;;;;18.45;10.73;;;;;;;;;;6092638;23;20056;-83
2022/08/24 06:45:20;;;;;;;19.35;10.88;;;;;;;;;;6093917;23;20038;-84
2022/08/24 06:47:46;;;;;;;19.52;11.10;;;;;;;;;;6093494;23;20439;-83
2022/08/24 06:50:12;;;;;;;19.42;11.48;;;;;;;;;;6103063;23;20036;-84
2022/08/24 06:52:49;;;;;;;18.85;11.48;;;;;;;;;;6091930;23;20022;-84
2022/08/24 06:55:15;;;;;;;20.13;12.10;;;;;;;;;;6092991;23;20458;-82
2022/08/24 06:57:40;;;;;;;19.58;11.48;;;;;;;;;;6116744;23;20080;-83
2022/08/24 07:00:08;;;;;;;19.98;11.50;;;;;;;;;;6092877;23;20022;-84
2022/08/24 07:02:33;;;;;;;19.15;10.55;;;;;;;;;;6091859;23;20017;-85
2022/08/24 07:04:59;;;;;;;17.23;9.82;;;;;;;;;;6092342;23;20307;-83
2022/08/24 07:07:25;;;;;;;19.08;11.70;;;;;;;;;;6115984;23;20021;-84
2022/08/24 07:09:50;;;;;;;17.98;10.63;;;;;;;;;;6117352;23;20481;-83
2022/08/24 07:12:15;;;;;;;19.17;10.55;;;;;;;;;;6091818;23;20077;-83
2022/08/24 07:14:42;;;;;;;18.33;10.10;;;;;;;;;;6092749;23;20014;-82
2022/08/24 07:17:07;;;;;;;17.73;11.05;;;;;;;;;;6116672;23;20323;-82
2022/08/24 07:19:32;;;;;;;17.35;10.85;;;;;;;;;;6070308;23;20025;-83
2022/08/24 07:21:58;;;;;;;16.38;10.07;;;;;;;;;;6117839;23;20406;-83
2022/08/24 07:24:24;;;;;;;17.17;9.93;;;;;;;;;;6094446;23;20446;-82
2022/08/24 07:26:49;;;;;;;17.70;11.23;;;;;;;;;;6119079;23;20014;-83
2022/08/24 07:29:15;;;;;;;17.33;10.73;;;;;;;;;;6093434;23;20498;-82
2022/08/24 07:31:42;;;;;;;18.95;10.70;;;;;;;;;;6093668;23;20108;-84
2022/08/24 07:34:10;;;;;;;14.60;9.15;;;;;;;;;;6118514;23;20472;-83
2022/08/24 07:36:36;;;;;;;17.33;10.32;;;;;;;;;;6118767;23;20014;-83
2022/08/24 07:39:04;;;;;;;14.10;9.23;;;;;;;;;;6093905;23;20018;-83
2022/08/24 07:41:30;;;;;;;15.95;9.68;;;;;;;;;;6094723;23;20018;-83
2022/08/24 07:43:56;;;;;;;15.95;9.55;;;;;;;;;;6071946;23;20017;-83
2022/08/24 07:46:22;;;;;;;16.90;10.23;;;;;;;;;;6095322;23;20009;-83
2022/08/24 07:48:47;;;;;;;18.50;10.35;;;;;;;;;;6095039;23;20458;-83
2022/08/24 07:51:17;;;;;;;16.00;9.50;;;;;;;;;;6094366;23;20025;-83
2022/08/24 07:53:43;;;;;;;14.00;9.27;;;;;;;;;;6093692;23;20446;-83
2022/08/24 07:56:09;;;;;;;13.68;8.50;;;;;;;;;;6117412;23;20014;-83
2022/08/24 07:58:35;;;;;;;15.60;9.80;;;;;;;;;;6118302;23;20458;-82
2022/08/24 08:01:01;;;;;;;14.18;8.20;;;;;;;;;;6093992;23;20106;-83
2022/08/24 08:03:28;;;;;;;14.63;7.95;;;;;;;;;;6094186;23;20010;-83
2022/08/24 08:05:57;;;;;;;13.63;8.30;;;;;;;;;;6091204;23;20481;-83
2022/08/24 08:08:24;;;;;;;16.13;8.27;;;;;;;;;;6093779;23;20010;-84
2022/08/24 08:10:50;;;;;;;14.57;7.70;;;;;;;;;;6095344;23;20014;-83
2022/08/24 08:13:19;;;;;;;13.98;7.70;;;;;;;;;;6085204;23;20021;-82
2022/08/24 08:15:44;;;;;;;13.73;8.35;;;;;;;;;;6094099;23;20338;-84
2022/08/24 08:18:13;;;;;;;13.68;8.27;;;;;;;;;;6093923;23;20100;-84
2022/08/24 08:20:42;;;;;;;13.65;7.82;;;;;;;;;;6079963;23;20080;-84
2022/08/24 08:25:56;;;;;;;13.75;7.85;;;;;;;;;;6118947;23;20485;-83
2022/08/24 08:28:25;;;;;;;13.35;8.30;;;;;;;;;;6093763;23;20022;-82
2022/08/24 08:30:51;;;;;;;11.60;7.40;;;;;;;;;;6077216;23;20018;-82
2022/08/24 08:33:19;;;;;;;15.90;8.47;;;;;;;;;;6095633;23;20016;-82
2022/08/24 08:35:46;;;;;;;11.55;7.55;;;;;;;;;;6094411;23;20241;-82
2022/08/24 08:38:11;;;;;;;12.15;7.78;;;;;;;;;;6107600;23;20365;-82
2022/08/24 08:41:02;;;;;;;13.50;7.75;;;;;;;;;;6094368;23;20037;-83
2022/08/24 08:43:47;;;;;;;11.18;7.85;;;;;;;;;;6093932;23;20346;-82
2022/08/24 08:46:33;;;;;;;11.25;7.40;;;;;;;;;;6085408;23;20037;-83
2022/08/24 08:49:10;;;;;;;10.30;7.30;;;;;;;;;;6117759;23;20116;-84
2022/08/24 08:51:38;;;;;;;10.82;6.80;;;;;;;;;;6117049;23;20028;-83
2022/08/24 08:54:12;;;;;;;11.35;7.20;;;;;;;;;;6117767;23;20018;-84
2022/08/24 08:56:59;;;;;;;13.85;6.80;;;;;;;;;;6117109;23;20014;-83
2022/08/24 08:59:39;;;;;;;11.98;6.53;;;;;;;;;;6093589;23;20018;-83
2022/08/24 09:02:28;;;;;;;8.93;5.45;;;;;;;;;;6117489;23;20048;-83
2022/08/24 09:05:08;;;;;;;9.52;5.78;;;;;;;;;;6119385;23;20022;-84
2022/08/24 09:08:17;;;;;;;9.95;5.93;;;;;;;;;;6091895;23;20490;-86
2022/08/24 09:10:53;;;;;;;8.82;5.53;;;;;;;;;;6101375;23;20100;-83
2022/08/24 09:13:31;;;;;;;8.07;5.55;;;;;;;;;;6117833;23;20072;-82
2022/08/24 09:16:00;;;;;;;9.15;5.60;;;;;;;;;;6093161;23;20021;-83
2022/08/24 09:18:35;;;;;;;8.13;5.00;;;;;;;;;;6109826;23;20295;-83
2022/08/24 09:21:09;;;;;;;9.63;4.93;;;;;;;;;;6118531;23;20022;-82
2022/08/24 09:24:01;;;;;;;8.85;5.50;;;;;;;;;;6117482;23;20014;-83
2022/08/24 09:26:56;;;;;;;8.27;5.18;;;;;;;;;;6117638;23;20018;-83
2022/08/24 09:29:57;;;;;;;9.63;5.50;;;;;;;;;;6059168;23;20030;-81
2022/08/24 09:32:40;;;;;;;9.68;5.93;;;;;;;;;;6034502;23;20018;-82
2022/08/24 09:35:13;;;;;;;9.63;5.40;;;;;;;;;;6059248;23;20413;-83
2022/08/24 09:37:59;;;;;;;11.82;5.97;;;;;;;;;;6021637;23;20042;-81
2022/08/24 09:40:43;;;;;;;10.05;5.50;;;;;;;;;;6043666;23;20050;-82
2022/08/24 09:43:23;;;;;;;11.25;5.53;;;;;;;;;;6044731;23;20046;-82
2022/08/24 09:45:57;;;;;;;10.48;5.80;;;;;;;;;;6045344;23;20022;-82
2022/08/24 09:49:00;;;;;;;9.85;6.18;;;;;;;;;;6056807;23;20022;-83
2022/08/24 09:52:08;;;;;;;8.98;5.40;;;;;;;;;;6032078;23;20505;-84
2022/08/24 09:54:41;;;;;;;15.85;6.40;;;;;;;;;;6056226;23;20065;-83
2022/08/24 09:57:25;;;;;;;9.85;6.10;;;;;;;;;;6032472;23;20352;-83
2022/08/24 10:00:11;;;;;;;9.65;5.82;;;;;;;;;;6034779;23;20102;-83
2022/08/24 10:02:52;;;;;;;11.38;5.65;;;;;;;;;;6034998;23;20018;-83
2022/08/24 10:05:36;;;;;;;9.88;5.05;;;;;;;;;;6034316;23;20411;-84
2022/08/24 10:08:20;;;;;;;8.32;4.93;;;;;;;;;;6093289;23;20017;-84
2022/08/24 10:11:07;;;;;;;8.75;4.72;;;;;;;;;;6078597;23;20042;-84
2022/08/24 10:13:57;;;;;;;8.35;5.30;;;;;;;;;;6092250;23;20021;-84
2022/08/24 10:16:31;;;;;;;10.27;4.80;;;;;;;;;;6091996;23;20443;-85
2022/08/24 10:19:24;;;;;;;8.02;5.20;;;;;;;;;;6068761;23;20453;-84
2022/08/24 10:21:52;;;;;;;7.90;4.70;;;;;;;;;;6068912;23;20014;-83
2022/08/24 10:24:38;;;;;;;9.77;5.28;;;;;;;;;;6092806;23;20029;-84
2022/08/24 10:27:20;;;;;;;9.15;4.78;;;;;;;;;;6091376;23;20018;-84
2022/08/24 10:29:57;;;;;;;8.65;5.15;;;;;;;;;;6068855;23;20089;-83
2022/08/24 10:32:41;;;;;;;10.23;5.07;;;;;;;;;;6091579;23;20093;-84
2022/08/24 10:35:16;;;;;;;9.40;5.20;;;;;;;;;;6094331;23;20026;-85
2022/08/24 10:41:11;;;;;;;9.13;4.63;;;;;;;;;;6117306;23;20024;-82
2022/08/24 10:44:04;;;;;;;7.60;4.90;;;;;;;;;;6067222;23;20068;-82
2022/08/24 10:46:38;;;;;;;10.73;4.20;;;;;;;;;;6091174;23;20017;-84
2022/08/24 10:49:34;;;;;;;7.25;4.03;;;;;;;;;;6099144;23;20036;-84
2022/08/24 10:52:23;;;;;;;;;;;;;;;;;;6119316;23;20022;-84
2022/08/24 10:54:49;;;;;;;6.07;3.58;;;;;;;;;;6110658;23;20611;-83
2022/08/24 10:57:29;;;;;;;6.30;3.70;;;;;;;;;;6093733;23;20017;-84
2022/08/24 11:00:14;;;;;;;8.05;4.07;;;;;;;;;;6081424;23;20072;-85
2022/08/24 11:02:45;;;;;;;7.53;3.67;;;;;;;;;;6092872;23;20022;-85
2022/08/24 11:05:28;;;;;;;8.32;3.83;;;;;;;;;;6092960;23;20455;-86
2022/08/24 11:08:03;;;;;;;9.43;4.22;;;;;;;;;;6093859;23;20420;-84
2022/08/24 11:10:32;;;;;;;7.03;4.47;;;;;;;;;;6092297;23;20084;-85
2022/08/24 11:13:16;;;;;;;7.75;4.18;;;;;;;;;;6093838;23;20018;-84
2022/08/24 11:15:47;;;;;;;6.93;4.60;;;;;;;;;;6117017;23;20018;-85
2022/08/24 11:18:15;;;;;;;11.40;5.15;;;;;;;;;;6080412;23;20354;-84
2022/08/24 11:20:45;;;;;;;9.35;5.15;;;;;;;;;;6092152;23;20125;-84
2022/08/24 11:23:23;;;;;;;12.40;5.75;;;;;;;;;;6093229;23;20018;-84
2022/08/24 11:25:56;;;;;;;10.48;6.07;;;;;;;;;;6117242;23;20037;-84
2022/08/24 11:28:24;;;;;;;8.45;5.63;;;;;;;;;;6067004;23;20355;-84
2022/08/24 11:30:50;;;;;;;10.32;6.30;;;;;;;;;;6104809;23;20021;-84
2022/08/24 11:33:33;;;;;;;10.20;5.90;;;;;;;;;;6116991;23;20511;-84
2022/08/24 11:36:01;;;;;;;13.10;6.30;;;;;;;;;;6092299;23;20014;-83
2022/08/24 11:38:30;;;;;;;12.40;6.57;;;;;;;;;;6094412;23;20020;-83
2022/08/24 11:40:58;;;;;;;8.10;5.78;;;;;;;;;;6093159;23;20398;-84
2022/08/24 11:43:45;;;;;;;10.15;5.95;;;;;;;;;;6085963;23;20017;-84
2022/08/24 11:46:29;;;;;;;9.07;5.82;;;;;;;;;;6117463;23;20475;-84
2022/08/24 11:49:09;;;;;;;8.43;5.78;;;;;;;;;;6117607;23;20026;-85
2022/08/24 11:51:56;;;;;;;9.52;5.40;;;;;;;;;;6092442;23;20024;-85
2022/08/24 11:54:54;;;;;;;10.18;5.70;;;;;;;;;;6119766;23;20010;-84
2022/08/24 11:57:27;;;;;;;9.35;5.70;;;;;;;;;;6117266;23;20406;-83
2022/08/24 12:00:11;;;;;;;9.90;5.57;;;;;;;;;;6079206;23;20025;-84
2022/08/24 12:02:50;;;;;;;8.15;4.63;;;;;;;;;;6091587;23;20081;-84
2022/08/24 12:05:33;;;;;;;7.80;5.35;;;;;;;;;;6104408;23;20018;-84
2022/08/24 12:08:20;;;;;;;18.08;7.32;;;;;;;;;;6115224;23;20462;-85
2022/08/24 12:10:48;;;;;;;9.52;4.93;;;;;;;;;;6091926;23;20072;-83
2022/08/24 12:13:41;;;;;;;9.13;5.15;;;;;;;;;;6116245;23;20034;-82
2022/08/24 12:16:37;;;;;;;8.88;4.93;;;;;;;;;;6115595;23;20013;-84
2022/08/24 12:19:19;;;;;;;9.98;5.18;;;;;;;;;;6115755;23;20045;-84
2022/08/24 12:21:48;;;;;;;10.60;5.18;;;;;;;;;;6095118;23;20100;-84
2022/08/24 12:24:32;;;;;;;6.57;5.03;;;;;;;;;;6061525;23;20010;-84
2022/08/24 12:27:21;;;;;;;8.25;5.40;;;;;;;;;;6089938;23;20092;-83
2022/08/24 12:30:15;;;;;;;8.73;5.57;;;;;;;;;;6091824;23;20033;-83
2022/08/24 12:32:55;;;;;;;9.93;5.18;;;;;;;;;;6061650;23;20024;-84
2022/08/24 12:35:27;;;;;;;10.25;5.20;;;;;;;;;;6101096;23;20022;-83
2022/08/24 12:37:56;;;;;;;8.10;5.18;;;;;;;;;;6090883;23;20025;-83
2022/08/24 12:40:35;;;;;;;8.57;4.90;;;;;;;;;;6117649;23;20032;-83
2022/08/24 12:43:07;;;;;;;11.27;5.95;;;;;;;;;;6116060;23;20025;-82
2022/08/24 12:45:35;;;;;;;7.82;5.22;;;;;;;;;;6091834;23;20093;-86
2022/08/24 12:48:20;;;;;;;8.45;5.35;;;;;;;;;;6083412;23;20541;-84
2022/08/24 12:50:51;;;;;;;7.40;4.72;;;;;;;;;;6090742;23;20026;-83
2022/08/24 12:53:25;;;;;;;10.57;5.45;;;;;;;;;;6105501;23;20014;-84
2022/08/24 12:56:19;;;;;;;9.10;5.00;;;;;;;;;;6102927;23;20073;-84
2022/08/24 12:58:44;;;;;;;7.90;4.70;;;;;;;;;;6046517;23;20028;-84
2022/08/24 13:01:13;;;;;;;10.48;5.05;;;;;;;;;;6117362;23;20093;-83
2022/08/24 13:03:40;;;;;;;7.40;4.90;;;;;;;;;;6078533;23;20354;-83
2022/08/24 13:06:19;;;;;;;8.65;4.50;;;;;;;;;;6117122;23;20041;-83
2022/08/24 13:08:50;;;;;;;7.25;4.88;;;;;;;;;;6092256;23;20393;-83
2022/08/24 13:11:29;;;;;;;8.05;4.80;;;;;;;;;;6088466;23;20050;-83
2022/08/24 13:13:57;;;;;;;7.45;4.60;;;;;;;;;;6089797;23;20029;-85
2022/08/24 13:16:54;;;;;;;9.43;5.10;;;;;;;;;;6115409;23;20033;-85
2022/08/24 13:19:22;;;;;;;;;;;;;;;;;;6119731;23;20517;-86
2022/08/24 13:22:14;;;;;;;8.88;4.72;;;;;;;;;;6114880;23;19913;-85
2022/08/24 13:24:55;;;;;;;7.70;5.18;;;;;;;;;;6049346;23;20061;-85
2022/08/24 13:27:20;;;;;;;10.85;4.78;;;;;;;;;;6115932;23;20113;-86
2022/08/24 13:30:04;;;;;;;6.20;4.60;;;;;;;;;;6116894;23;20033;-85
2022/08/24 13:32:39;;;;;;;8.15;4.88;;;;;;;;;;6117446;23;20355;-85
2022/08/24 13:35:36;;;;;;;8.82;5.32;;;;;;;;;;6091231;23;20029;-84
2022/08/24 13:38:36;;;;;;;11.48;5.60;;;;;;;;;;6113691;23;20028;-84
2022/08/24 13:41:07;;;;;;;7.78;5.28;;;;;;;;;;6114211;23;20450;-84
2022/08/24 13:44:05;;;;;;;7.43;4.85;;;;;;;;;;6114189;23;20048;-83
2022/08/24 13:46:36;;;;;;;8.35;4.80;;;;;;;;;;6099279;23;20080;-83
2022/08/24 13:49:13;;;;;;;7.30;4.20;;;;;;;;;;6091904;23;20041;-86
2022/08/24 13:51:51;;;;;;;;;;;;;;;;;;6114308;23;20060;-85
2022/08/24 13:54:29;;;;;;;6.47;4.03;;;;;;;;;;6104053;23;19909;-86
2022/08/24 13:57:21;;;;;;;11.07;4.40;;;;;;;;;;6089858;23;20525;-83
2022/08/24 14:00:12;;;;;;;6.63;4.05;;;;;;;;;;6090845;23;20018;-83
2022/08/24 14:03:20;;;;;;;7.10;4.45;;;;;;;;;;6103414;23;20069;-86
2022/08/24 14:05:54;;;;;;;7.93;4.15;;;;;;;;;;6087069;23;20044;-84
2022/08/24 14:08:39;;;;;;;7.25;4.22;;;;;;;;;;6117531;23;20014;-85
2022/08/24 14:11:20;;;;;;;6.18;4.30;;;;;;;;;;6113881;23;20465;-84
2022/08/24 14:14:08;;;;;;;9.00;4.38;;;;;;;;;;6118061;23;20473;-84
2022/08/24 14:20:13;;;;;;;9.05;4.07;;;;;;;;;;6102784;23;20025;-83
2022/08/24 14:22:48;;;;;;;8.05;4.50;;;;;;;;;;6113939;23;20342;-84
2022/08/24 14:25:20;;;;;;;9.43;4.55;;;;;;;;;;6112711;23;20029;-85
2022/08/24 14:27:54;;;;;;;6.93;3.90;;;;;;;;;;6089640;23;20897;-84
2022/08/24 14:30:21;;;;;;;5.63;3.60;;;;;;;;;;6105686;23;20048;-85
2022/08/24 14:33:05;;;;;;;;;;;;;;;;;;6119927;23;20045;-86
2022/08/24 14:36:28;;;;;;;7.20;3.70;;;;;;;;;;6117158;23;20007;-87
2022/08/24 14:38:58;;;;;;;7.45;4.88;;;;;;;;;;6100319;23;20030;-86
2022/08/24 14:41:39;;;;;;;6.90;4.15;;;;;;;;;;6091285;23;20020;-86
2022/08/24 14:44:24;;;;;;;6.28;3.78;;;;;;;;;;6091475;23;20500;-86
2022/08/24 14:47:09;;;;;;;8.00;3.55;;;;;;;;;;6115825;23;20025;-86
2022/08/24 14:50:03;;;;;;;6.90;3.65;;;;;;;;;;6090965;23;20026;-86
2022/08/24 14:52:28;;;;;;;5.25;3.75;;;;;;;;;;6114798;23;20028;-84
2022/08/24 14:55:09;;;;;;;8.70;4.70;;;;;;;;;;6117088;23;20022;-85
2022/08/24 14:57:40;;;;;;;7.57;4.30;;;;;;;;;;6090610;23;20462;-85
2022/08/24 15:00:20;;;;;;;10.80;4.20;;;;;;;;;;6115271;23;20113;-84
2022/08/24 15:03:43;;;;;;;8.60;4.38;;;;;;;;;;6091375;23;20018;-86
2022/08/24 15:06:29;;;;;;;9.25;4.90;;;;;;;;;;6003007;23;20459;-85
2022/08/24 15:09:16;;;;;;;9.23;4.85;;;;;;;;;;6004392;23;20609;-85
2022/08/24 15:11:42;;;;;;;9.57;5.10;;;;;;;;;;6026664;23;20183;-85
2022/08/24 15:14:19;;;;;;;7.55;4.38;;;;;;;;;;6003262;23;20031;-85
2022/08/24 15:16:50;;;;;;;10.10;4.82;;;;;;;;;;6026944;23;20019;-86
2022/08/24 15:19:25;;;;;;;8.23;4.80;;;;;;;;;;6003516;23;20039;-86
2022/08/24 15:22:07;;;;;;;8.25;4.75;;;;;;;;;;6027438;23;20079;-85
2022/08/24 15:24:47;;;;;;;10.48;4.65;;;;;;;;;;6003747;23;20078;-85